sensor_id;sensor_type;location;lat;lon;timestamp;temperature;humidity
8856;DHT22;4464;50.882;4.730;2023-11-19T00:02:23;13.50;99.90
8856;DHT22;4464;50.882;4.730;2023-11-19T00:04:49;13.60;99.90
8856;DHT22;4464;50.882;4.730;2023-11-19T00:07:15;13.60;99.90
8856;DHT22;4464;50.882;4.730;2023-11-19T00:09:41;13.50;99.90
8856;DHT22;4464;50.882;4.730;2023-11-19T00:12:09;13.50;99.90
8856;DHT22;4464;50.882;4.730;2023-11-19T00:14:37;13.60;99.90
8856;DHT22;4464;50.882;4.730;2023-11-19T00:17:03;13.60;99.90
8856;DHT22;4464;50.882;4.730;2023-11-19T00:19:29;13.60;99.90
8856;DHT22;4464;50.882;4.730;2023-11-19T00:21:55;13.70;99.90
8856;DHT22;4464;50.882;4.730;2023-11-19T00:24:21;13.70;99.90
8856;DHT22;4464;50.882;4.730;2023-11-19T00:26:47;13.70;99.90
8856;DHT22;4464;50.882;4.730;2023-11-19T00:29:13;13.70;99.90
8856;DHT22;4464;50.882;4.730;2023-11-19T00:31:41;13.70;99.90
8856;DHT22;4464;50.882;4.730;2023-11-19T00:34:07;13.60;99.90
8856;DHT22;4464;50.882;4.730;2023-11-19T00:36:35;13.60;99.90
8856;DHT22;4464;50.882;4.730;2023-11-19T00:39:01;13.60;99.90
8856;DHT22;4464;50.882;4.730;2023-11-19T00:41:27;13.60;99.90
8856;DHT22;4464;50.882;4.730;2023-11-19T00:43:53;13.70;99.90
8856;DHT22;4464;50.882;4.730;2023-11-19T00:46:19;13.70;99.90
8856;DHT22;4464;50.882;4.730;2023-11-19T00:48:45;13.70;99.90
8856;DHT22;4464;50.882;4.730;2023-11-19T00:51:12;13.70;99.90
8856;DHT22;4464;50.882;4.730;2023-11-19T00:53:45;13.70;99.90
8856;DHT22;4464;50.882;4.730;2023-11-19T00:56:11;13.70;99.90
8856;DHT22;4464;50.882;4.730;2023-11-19T00:58:40;13.70;99.90
8856;DHT22;4464;50.882;4.730;2023-11-19T01:01:05;13.70;99.90
8856;DHT22;4464;50.882;4.730;2023-11-19T01:03:31;13.70;99.90
8856;DHT22;4464;50.882;4.730;2023-11-19T01:05:58;13.70;99.90
8856;DHT22;4464;50.882;4.730;2023-11-19T01:08:28;13.70;99.90
8856;DHT22;4464;50.882;4.730;2023-11-19T01:10:55;13.60;99.90
8856;DHT22;4464;50.882;4.730;2023-11-19T01:13:20;13.70;99.90
8856;DHT22;4464;50.882;4.730;2023-11-19T01:15:49;13.70;99.90
8856;DHT22;4464;50.882;4.730;2023-11-19T01:18:15;13.70;99.90
8856;DHT22;4464;50.882;4.730;2023-11-19T01:20:41;13.60;99.90
8856;DHT22;4464;50.882;4.730;2023-11-19T01:23:06;13.70;99.90
8856;DHT22;4464;50.882;4.730;2023-11-19T01:25:38;13.70;99.90
8856;DHT22;4464;50.882;4.730;2023-11-19T01:28:04;13.70;99.90
8856;DHT22;4464;50.882;4.730;2023-11-19T01:30:30;13.70;99.90
8856;DHT22;4464;50.882;4.730;2023-11-19T01:32:58;13.70;99.90
8856;DHT22;4464;50.882;4.730;2023-11-19T01:35:26;13.70;99.90
8856;DHT22;4464;50.882;4.730;2023-11-19T01:37:54;13.80;99.90
8856;DHT22;4464;50.882;4.730;2023-11-19T01:40:25;13.80;99.90
8856;DHT22;4464;50.882;4.730;2023-11-19T01:42:50;13.70;99.90
8856;DHT22;4464;50.882;4.730;2023-11-19T01:45:28;13.70;99.90
8856;DHT22;4464;50.882;4.730;2023-11-19T01:48:01;13.60;99.90
8856;DHT22;4464;50.882;4.730;2023-11-19T01:50:30;13.70;99.90
8856;DHT22;4464;50.882;4.730;2023-11-19T01:53:04;13.70;99.90
8856;DHT22;4464;50.882;4.730;2023-11-19T01:55:32;13.70;99.90
8856;DHT22;4464;50.882;4.730;2023-11-19T01:58:00;13.70;99.90
8856;DHT22;4464;50.882;4.730;2023-11-19T02:00:27;13.70;99.90
8856;DHT22;4464;50.882;4.730;2023-11-19T02:02:58;13.70;99.90
8856;DHT22;4464;50.882;4.730;2023-11-19T02:05:23;13.70;99.90
8856;DHT22;4464;50.882;4.730;2023-11-19T02:07:49;13.60;99.90
8856;DHT22;4464;50.882;4.730;2023-11-19T02:10:16;13.60;99.90
8856;DHT22;4464;50.882;4.730;2023-11-19T02:12:45;13.60;99.90
8856;DHT22;4464;50.882;4.730;2023-11-19T02:15:11;13.60;99.90
8856;DHT22;4464;50.882;4.730;2023-11-19T02:17:37;13.60;99.90
8856;DHT22;4464;50.882;4.730;2023-11-19T02:20:04;13.50;99.90
8856;DHT22;4464;50.882;4.730;2023-11-19T02:22:35;13.50;99.90
8856;DHT22;4464;50.882;4.730;2023-11-19T02:25:04;13.50;99.90
8856;DHT22;4464;50.882;4.730;2023-11-19T02:30:08;13.50;99.90
8856;DHT22;4464;50.882;4.730;2023-11-19T02:32:35;13.40;99.90
8856;DHT22;4464;50.882;4.730;2023-11-19T02:35:01;13.30;99.90
8856;DHT22;4464;50.882;4.730;2023-11-19T02:37:27;13.30;99.90
8856;DHT22;4464;50.882;4.730;2023-11-19T02:39:55;13.20;99.90
8856;DHT22;4464;50.882;4.730;2023-11-19T02:42:21;13.20;99.90
8856;DHT22;4464;50.882;4.730;2023-11-19T02:44:47;13.20;99.90
8856;DHT22;4464;50.882;4.730;2023-11-19T02:47:14;13.20;99.90
8856;DHT22;4464;50.882;4.730;2023-11-19T02:49:40;13.10;99.90
8856;DHT22;4464;50.882;4.730;2023-11-19T02:52:06;13.10;99.90
8856;DHT22;4464;50.882;4.730;2023-11-19T02:54:32;13.10;99.90
8856;DHT22;4464;50.882;4.730;2023-11-19T02:57:01;13.10;99.90
8856;DHT22;4464;50.882;4.730;2023-11-19T02:59:29;13.00;99.90
8856;DHT22;4464;50.882;4.730;2023-11-19T03:02:04;13.10;99.90
8856;DHT22;4464;50.882;4.730;2023-11-19T03:04:40;13.20;99.90
8856;DHT22;4464;50.882;4.730;2023-11-19T03:07:06;13.10;99.90
8856;DHT22;4464;50.882;4.730;2023-11-19T03:09:37;13.20;99.90
8856;DHT22;4464;50.882;4.730;2023-11-19T03:12:08;13.20;99.90
8856;DHT22;4464;50.882;4.730;2023-11-19T03:14:34;13.30;99.90
8856;DHT22;4464;50.882;4.730;2023-11-19T03:17:03;13.20;99.90
8856;DHT22;4464;50.882;4.730;2023-11-19T03:19:30;13.20;99.90
8856;DHT22;4464;50.882;4.730;2023-11-19T03:21:56;13.30;99.90
8856;DHT22;4464;50.882;4.730;2023-11-19T03:24:22;13.30;99.90
8856;DHT22;4464;50.882;4.730;2023-11-19T03:26:49;13.40;99.90
8856;DHT22;4464;50.882;4.730;2023-11-19T03:29:17;13.30;99.90
8856;DHT22;4464;50.882;4.730;2023-11-19T03:31:45;13.30;99.90
8856;DHT22;4464;50.882;4.730;2023-11-19T03:34:11;13.30;99.90
8856;DHT22;4464;50.882;4.730;2023-11-19T03:36:37;13.30;99.90
8856;DHT22;4464;50.882;4.730;2023-11-19T03:39:05;13.30;99.90
8856;DHT22;4464;50.882;4.730;2023-11-19T03:41:31;13.30;99.90
8856;DHT22;4464;50.882;4.730;2023-11-19T03:43:57;13.30;99.90
8856;DHT22;4464;50.882;4.730;2023-11-19T03:46:22;13.20;99.90
8856;DHT22;4464;50.882;4.730;2023-11-19T03:48:49;13.20;99.90
8856;DHT22;4464;50.882;4.730;2023-11-19T03:51:15;13.10;99.90
8856;DHT22;4464;50.882;4.730;2023-11-19T03:53:45;13.10;99.90
8856;DHT22;4464;50.882;4.730;2023-11-19T03:56:13;13.10;99.90
8856;DHT22;4464;50.882;4.730;2023-11-19T03:58:39;13.10;99.90
8856;DHT22;4464;50.882;4.730;2023-11-19T04:01:06;13.10;99.90
8856;DHT22;4464;50.882;4.730;2023-11-19T04:03:34;13.00;99.90
8856;DHT22;4464;50.882;4.730;2023-11-19T04:05:59;13.00;99.90
8856;DHT22;4464;50.882;4.730;2023-11-19T04:08:25;13.00;99.90
8856;DHT22;4464;50.882;4.730;2023-11-19T04:10:51;12.90;99.90
8856;DHT22;4464;50.882;4.730;2023-11-19T04:13:19;12.90;99.90
8856;DHT22;4464;50.882;4.730;2023-11-19T04:15:45;12.80;99.90
8856;DHT22;4464;50.882;4.730;2023-11-19T04:18:11;12.80;99.90
8856;DHT22;4464;50.882;4.730;2023-11-19T04:20:40;12.80;99.90
8856;DHT22;4464;50.882;4.730;2023-11-19T04:23:08;12.70;99.90
8856;DHT22;4464;50.882;4.730;2023-11-19T04:25:35;12.80;99.90
8856;DHT22;4464;50.882;4.730;2023-11-19T04:28:01;12.90;99.90
8856;DHT22;4464;50.882;4.730;2023-11-19T04:30:30;12.90;99.90
8856;DHT22;4464;50.882;4.730;2023-11-19T04:32:57;12.90;99.90
8856;DHT22;4464;50.882;4.730;2023-11-19T04:35:23;12.90;99.90
8856;DHT22;4464;50.882;4.730;2023-11-19T04:37:51;12.90;99.90
8856;DHT22;4464;50.882;4.730;2023-11-19T04:40:17;12.90;99.90
8856;DHT22;4464;50.882;4.730;2023-11-19T04:42:50;12.90;99.90
8856;DHT22;4464;50.882;4.730;2023-11-19T04:45:16;12.90;99.90
8856;DHT22;4464;50.882;4.730;2023-11-19T04:47:43;12.80;99.90
8856;DHT22;4464;50.882;4.730;2023-11-19T04:50:09;12.70;99.90
8856;DHT22;4464;50.882;4.730;2023-11-19T04:52:40;12.70;99.90
8856;DHT22;4464;50.882;4.730;2023-11-19T04:55:10;12.80;99.90
8856;DHT22;4464;50.882;4.730;2023-11-19T04:57:40;12.80;99.90
8856;DHT22;4464;50.882;4.730;2023-11-19T05:00:06;12.70;99.90
8856;DHT22;4464;50.882;4.730;2023-11-19T05:02:34;12.80;99.90
8856;DHT22;4464;50.882;4.730;2023-11-19T05:05:01;12.70;99.90
8856;DHT22;4464;50.882;4.730;2023-11-19T05:07:27;12.70;99.90
8856;DHT22;4464;50.882;4.730;2023-11-19T05:09:52;12.60;99.90
8856;DHT22;4464;50.882;4.730;2023-11-19T05:12:18;12.60;99.90
8856;DHT22;4464;50.882;4.730;2023-11-19T05:14:47;12.60;99.90
8856;DHT22;4464;50.882;4.730;2023-11-19T05:17:18;12.70;99.90
8856;DHT22;4464;50.882;4.730;2023-11-19T05:19:47;12.70;99.90
8856;DHT22;4464;50.882;4.730;2023-11-19T05:22:13;12.80;99.90
8856;DHT22;4464;50.882;4.730;2023-11-19T05:24:39;12.80;99.90
8856;DHT22;4464;50.882;4.730;2023-11-19T05:27:06;12.80;99.90
8856;DHT22;4464;50.882;4.730;2023-11-19T05:29:33;12.70;99.90
8856;DHT22;4464;50.882;4.730;2023-11-19T05:32:01;12.70;99.90
8856;DHT22;4464;50.882;4.730;2023-11-19T05:34:29;12.60;99.90
8856;DHT22;4464;50.882;4.730;2023-11-19T05:36:55;12.60;99.90
8856;DHT22;4464;50.882;4.730;2023-11-19T05:39:21;12.60;99.90
8856;DHT22;4464;50.882;4.730;2023-11-19T05:41:49;12.60;99.90
8856;DHT22;4464;50.882;4.730;2023-11-19T05:44:15;12.50;99.90
8856;DHT22;4464;50.882;4.730;2023-11-19T05:46:42;12.50;99.90
8856;DHT22;4464;50.882;4.730;2023-11-19T05:49:12;12.40;99.90
8856;DHT22;4464;50.882;4.730;2023-11-19T05:51:39;12.50;99.90
8856;DHT22;4464;50.882;4.730;2023-11-19T05:54:07;12.50;99.90
8856;DHT22;4464;50.882;4.730;2023-11-19T05:56:33;12.50;99.90
8856;DHT22;4464;50.882;4.730;2023-11-19T05:58:59;12.50;99.90
8856;DHT22;4464;50.882;4.730;2023-11-19T06:01:26;12.50;99.90
8856;DHT22;4464;50.882;4.730;2023-11-19T06:03:52;12.50;99.90
8856;DHT22;4464;50.882;4.730;2023-11-19T06:06:19;12.50;99.90
8856;DHT22;4464;50.882;4.730;2023-11-19T06:08:47;12.50;99.90
8856;DHT22;4464;50.882;4.730;2023-11-19T06:11:13;12.40;99.90
8856;DHT22;4464;50.882;4.730;2023-11-19T06:13:44;12.40;99.90
8856;DHT22;4464;50.882;4.730;2023-11-19T06:16:10;12.30;99.90
8856;DHT22;4464;50.882;4.730;2023-11-19T06:18:36;12.30;99.90
8856;DHT22;4464;50.882;4.730;2023-11-19T06:21:03;12.30;99.90
8856;DHT22;4464;50.882;4.730;2023-11-19T06:23:31;12.30;99.90
8856;DHT22;4464;50.882;4.730;2023-11-19T06:25:57;12.40;99.90
8856;DHT22;4464;50.882;4.730;2023-11-19T06:28:22;12.30;99.90
8856;DHT22;4464;50.882;4.730;2023-11-19T06:30:48;12.20;99.90
8856;DHT22;4464;50.882;4.730;2023-11-19T06:33:14;12.10;99.90
8856;DHT22;4464;50.882;4.730;2023-11-19T06:35:43;12.10;99.90
8856;DHT22;4464;50.882;4.730;2023-11-19T06:38:09;12.10;99.90
8856;DHT22;4464;50.882;4.730;2023-11-19T06:40:37;12.10;99.90
8856;DHT22;4464;50.882;4.730;2023-11-19T06:43:04;12.10;99.90
8856;DHT22;4464;50.882;4.730;2023-11-19T06:45:30;12.10;99.90
8856;DHT22;4464;50.882;4.730;2023-11-19T06:47:56;12.00;99.90
8856;DHT22;4464;50.882;4.730;2023-11-19T06:50:24;12.00;99.90
8856;DHT22;4464;50.882;4.730;2023-11-19T06:52:50;12.00;99.90
8856;DHT22;4464;50.882;4.730;2023-11-19T06:55:16;11.90;99.90
8856;DHT22;4464;50.882;4.730;2023-11-19T06:57:44;11.90;99.90
8856;DHT22;4464;50.882;4.730;2023-11-19T07:00:10;11.90;99.90
8856;DHT22;4464;50.882;4.730;2023-11-19T07:02:39;11.90;99.90
8856;DHT22;4464;50.882;4.730;2023-11-19T07:05:05;11.80;99.90
8856;DHT22;4464;50.882;4.730;2023-11-19T07:07:32;11.80;99.90
8856;DHT22;4464;50.882;4.730;2023-11-19T07:10:01;11.70;99.90
8856;DHT22;4464;50.882;4.730;2023-11-19T07:12:28;11.70;99.90
8856;DHT22;4464;50.882;4.730;2023-11-19T07:14:54;11.70;99.90
8856;DHT22;4464;50.882;4.730;2023-11-19T07:17:22;11.70;99.90
8856;DHT22;4464;50.882;4.730;2023-11-19T07:19:50;11.70;99.90
8856;DHT22;4464;50.882;4.730;2023-11-19T07:22:19;11.80;99.90
8856;DHT22;4464;50.882;4.730;2023-11-19T07:24:45;11.80;99.90
8856;DHT22;4464;50.882;4.730;2023-11-19T07:27:11;11.80;99.90
8856;DHT22;4464;50.882;4.730;2023-11-19T07:29:38;11.80;99.90
8856;DHT22;4464;50.882;4.730;2023-11-19T07:32:04;11.80;99.90
8856;DHT22;4464;50.882;4.730;2023-11-19T07:34:33;11.80;99.90
8856;DHT22;4464;50.882;4.730;2023-11-19T07:37:02;11.80;99.90
8856;DHT22;4464;50.882;4.730;2023-11-19T07:39:29;11.80;99.90
8856;DHT22;4464;50.882;4.730;2023-11-19T07:41:54;11.90;99.90
8856;DHT22;4464;50.882;4.730;2023-11-19T07:44:23;11.90;99.90
8856;DHT22;4464;50.882;4.730;2023-11-19T07:46:49;12.00;99.90
8856;DHT22;4464;50.882;4.730;2023-11-19T07:49:14;12.00;99.90
8856;DHT22;4464;50.882;4.730;2023-11-19T07:51:40;12.00;99.90
8856;DHT22;4464;50.882;4.730;2023-11-19T07:54:07;12.10;99.90
8856;DHT22;4464;50.882;4.730;2023-11-19T07:56:35;12.10;99.90
8856;DHT22;4464;50.882;4.730;2023-11-19T07:59:02;12.20;99.90
8856;DHT22;4464;50.882;4.730;2023-11-19T08:01:28;12.30;99.90
8856;DHT22;4464;50.882;4.730;2023-11-19T08:03:54;12.40;99.90
8856;DHT22;4464;50.882;4.730;2023-11-19T08:06:22;12.50;99.90
8856;DHT22;4464;50.882;4.730;2023-11-19T08:08:48;12.60;99.90
8856;DHT22;4464;50.882;4.730;2023-11-19T08:11:16;12.70;99.90
8856;DHT22;4464;50.882;4.730;2023-11-19T08:13:47;12.90;99.90
8856;DHT22;4464;50.882;4.730;2023-11-19T08:16:13;13.00;99.90
8856;DHT22;4464;50.882;4.730;2023-11-19T08:18:42;13.10;99.90
8856;DHT22;4464;50.882;4.730;2023-11-19T08:21:08;13.10;99.90
8856;DHT22;4464;50.882;4.730;2023-11-19T08:23:37;13.10;99.90
8856;DHT22;4464;50.882;4.730;2023-11-19T08:26:06;13.20;99.90
8856;DHT22;4464;50.882;4.730;2023-11-19T08:28:32;13.30;99.90
8856;DHT22;4464;50.882;4.730;2023-11-19T08:31:00;13.60;99.90
8856;DHT22;4464;50.882;4.730;2023-11-19T08:33:26;13.60;99.90
8856;DHT22;4464;50.882;4.730;2023-11-19T08:35:52;13.70;99.90
8856;DHT22;4464;50.882;4.730;2023-11-19T08:38:18;13.70;99.90
8856;DHT22;4464;50.882;4.730;2023-11-19T08:40:44;13.90;99.90
8856;DHT22;4464;50.882;4.730;2023-11-19T08:43:10;14.00;99.90
8856;DHT22;4464;50.882;4.730;2023-11-19T08:45:36;14.10;99.90
8856;DHT22;4464;50.882;4.730;2023-11-19T08:48:02;14.20;99.90
8856;DHT22;4464;50.882;4.730;2023-11-19T08:50:30;14.30;99.90
8856;DHT22;4464;50.882;4.730;2023-11-19T08:52:56;14.50;99.90
8856;DHT22;4464;50.882;4.730;2023-11-19T08:55:22;14.30;99.90
8856;DHT22;4464;50.882;4.730;2023-11-19T08:57:47;14.10;99.90
8856;DHT22;4464;50.882;4.730;2023-11-19T09:00:15;13.80;99.90
8856;DHT22;4464;50.882;4.730;2023-11-19T09:02:41;13.60;99.90
8856;DHT22;4464;50.882;4.730;2023-11-19T09:05:08;13.40;99.90
8856;DHT22;4464;50.882;4.730;2023-11-19T09:07:36;13.30;99.90
8856;DHT22;4464;50.882;4.730;2023-11-19T09:10:07;13.30;99.90
8856;DHT22;4464;50.882;4.730;2023-11-19T09:12:34;13.20;99.90
8856;DHT22;4464;50.882;4.730;2023-11-19T09:15:03;13.00;99.90
8856;DHT22;4464;50.882;4.730;2023-11-19T09:17:29;12.80;99.90
8856;DHT22;4464;50.882;4.730;2023-11-19T09:19:55;12.70;99.90
8856;DHT22;4464;50.882;4.730;2023-11-19T09:22:23;12.60;99.90
8856;DHT22;4464;50.882;4.730;2023-11-19T09:24:51;12.50;99.90
8856;DHT22;4464;50.882;4.730;2023-11-19T09:27:20;12.60;99.90
8856;DHT22;4464;50.882;4.730;2023-11-19T09:29:46;12.60;99.90
8856;DHT22;4464;50.882;4.730;2023-11-19T09:32:14;12.80;99.90
8856;DHT22;4464;50.882;4.730;2023-11-19T09:34:42;12.90;99.90
8856;DHT22;4464;50.882;4.730;2023-11-19T09:37:08;13.00;99.90
8856;DHT22;4464;50.882;4.730;2023-11-19T09:39:36;13.10;99.90
8856;DHT22;4464;50.882;4.730;2023-11-19T09:42:03;13.20;99.90
8856;DHT22;4464;50.882;4.730;2023-11-19T09:44:29;13.30;99.90
8856;DHT22;4464;50.882;4.730;2023-11-19T09:46:56;13.50;99.90
8856;DHT22;4464;50.882;4.730;2023-11-19T09:49:25;13.70;99.90
8856;DHT22;4464;50.882;4.730;2023-11-19T09:51:52;13.80;99.90
8856;DHT22;4464;50.882;4.730;2023-11-19T09:54:20;13.90;99.90
8856;DHT22;4464;50.882;4.730;2023-11-19T09:56:46;13.90;99.90
8856;DHT22;4464;50.882;4.730;2023-11-19T09:59:16;13.90;99.90
8856;DHT22;4464;50.882;4.730;2023-11-19T10:01:45;14.00;99.90
8856;DHT22;4464;50.882;4.730;2023-11-19T10:04:15;14.00;99.90
8856;DHT22;4464;50.882;4.730;2023-11-19T10:06:42;14.00;99.90
8856;DHT22;4464;50.882;4.730;2023-11-19T10:09:08;14.00;99.90
8856;DHT22;4464;50.882;4.730;2023-11-19T10:11:36;14.10;99.90
8856;DHT22;4464;50.882;4.730;2023-11-19T10:14:02;14.40;99.90
8856;DHT22;4464;50.882;4.730;2023-11-19T10:16:29;14.70;99.90
8856;DHT22;4464;50.882;4.730;2023-11-19T10:18:58;14.90;99.90
8856;DHT22;4464;50.882;4.730;2023-11-19T10:21:25;14.80;99.90
8856;DHT22;4464;50.882;4.730;2023-11-19T10:23:52;14.80;99.90
8856;DHT22;4464;50.882;4.730;2023-11-19T10:26:20;14.70;99.90
8856;DHT22;4464;50.882;4.730;2023-11-19T10:28:47;14.70;99.90
8856;DHT22;4464;50.882;4.730;2023-11-19T10:31:14;14.80;99.90
8856;DHT22;4464;50.882;4.730;2023-11-19T10:33:39;15.00;99.90
8856;DHT22;4464;50.882;4.730;2023-11-19T10:36:06;15.30;99.90
8856;DHT22;4464;50.882;4.730;2023-11-19T10:38:32;15.40;99.90
8856;DHT22;4464;50.882;4.730;2023-11-19T10:40:59;14.90;99.90
8856;DHT22;4464;50.882;4.730;2023-11-19T10:43:27;14.70;99.90
8856;DHT22;4464;50.882;4.730;2023-11-19T10:45:53;14.60;99.90
8856;DHT22;4464;50.882;4.730;2023-11-19T10:48:19;14.60;99.90
8856;DHT22;4464;50.882;4.730;2023-11-19T10:50:50;14.90;99.90
8856;DHT22;4464;50.882;4.730;2023-11-19T10:53:18;15.00;99.90
8856;DHT22;4464;50.882;4.730;2023-11-19T10:55:47;15.10;99.90
8856;DHT22;4464;50.882;4.730;2023-11-19T10:58:15;14.90;99.90
8856;DHT22;4464;50.882;4.730;2023-11-19T11:00:51;14.70;99.90
8856;DHT22;4464;50.882;4.730;2023-11-19T11:03:22;14.50;99.90
8856;DHT22;4464;50.882;4.730;2023-11-19T11:05:51;14.40;99.90
8856;DHT22;4464;50.882;4.730;2023-11-19T11:08:22;14.20;99.90
8856;DHT22;4464;50.882;4.730;2023-11-19T11:10:54;14.20;99.90
8856;DHT22;4464;50.882;4.730;2023-11-19T11:13:22;14.00;99.90
8856;DHT22;4464;50.882;4.730;2023-11-19T11:15:52;14.00;99.90
8856;DHT22;4464;50.882;4.730;2023-11-19T11:18:20;14.60;99.90
8856;DHT22;4464;50.882;4.730;2023-11-19T11:20:54;14.70;99.90
8856;DHT22;4464;50.882;4.730;2023-11-19T11:26:29;14.50;99.90
8856;DHT22;4464;50.882;4.730;2023-11-19T11:29:09;14.60;99.90
8856;DHT22;4464;50.882;4.730;2023-11-19T11:37:35;14.50;99.90
8856;DHT22;4464;50.882;4.730;2023-11-19T11:40:04;14.60;99.90
8856;DHT22;4464;50.882;4.730;2023-11-19T11:42:38;14.80;99.90
8856;DHT22;4464;50.882;4.730;2023-11-19T11:45:09;15.10;99.90
8856;DHT22;4464;50.882;4.730;2023-11-19T11:50:20;14.50;99.90
8856;DHT22;4464;50.882;4.730;2023-11-19T11:55:27;14.90;99.90
8856;DHT22;4464;50.882;4.730;2023-11-19T11:57:56;16.20;99.90
8856;DHT22;4464;50.882;4.730;2023-11-19T12:00:31;17.30;99.90
8856;DHT22;4464;50.882;4.730;2023-11-19T12:03:00;18.00;99.90
8856;DHT22;4464;50.882;4.730;2023-11-19T12:05:27;17.90;99.90
8856;DHT22;4464;50.882;4.730;2023-11-19T12:10:29;18.00;99.90
8856;DHT22;4464;50.882;4.730;2023-11-19T12:12:59;18.70;99.90
8856;DHT22;4464;50.882;4.730;2023-11-19T12:15:25;18.50;99.90
8856;DHT22;4464;50.882;4.730;2023-11-19T12:17:53;17.40;99.90
8856;DHT22;4464;50.882;4.730;2023-11-19T12:20:22;16.60;99.90
8856;DHT22;4464;50.882;4.730;2023-11-19T12:22:49;16.80;99.90
8856;DHT22;4464;50.882;4.730;2023-11-19T12:25:17;17.20;99.90
8856;DHT22;4464;50.882;4.730;2023-11-19T12:27:49;18.10;99.90
8856;DHT22;4464;50.882;4.730;2023-11-19T12:30:25;18.00;99.90
8856;DHT22;4464;50.882;4.730;2023-11-19T12:32:52;17.20;99.90
8856;DHT22;4464;50.882;4.730;2023-11-19T12:35:19;16.10;99.90
8856;DHT22;4464;50.882;4.730;2023-11-19T12:37:50;15.50;99.90
8856;DHT22;4464;50.882;4.730;2023-11-19T12:40:24;15.00;99.90
8856;DHT22;4464;50.882;4.730;2023-11-19T12:42:54;14.90;99.90
8856;DHT22;4464;50.882;4.730;2023-11-19T12:45:20;14.80;99.90
8856;DHT22;4464;50.882;4.730;2023-11-19T12:48:07;14.30;99.90
8856;DHT22;4464;50.882;4.730;2023-11-19T12:50:53;14.10;99.90
8856;DHT22;4464;50.882;4.730;2023-11-19T12:53:22;14.00;99.90
8856;DHT22;4464;50.882;4.730;2023-11-19T12:55:49;14.00;99.90
8856;DHT22;4464;50.882;4.730;2023-11-19T12:58:32;13.90;99.90
8856;DHT22;4464;50.882;4.730;2023-11-19T13:01:05;13.80;99.90
8856;DHT22;4464;50.882;4.730;2023-11-19T13:03:33;13.80;99.90
8856;DHT22;4464;50.882;4.730;2023-11-19T13:06:17;13.90;99.90
8856;DHT22;4464;50.882;4.730;2023-11-19T13:08:48;13.90;99.90
8856;DHT22;4464;50.882;4.730;2023-11-19T13:11:31;14.00;99.90
8856;DHT22;4464;50.882;4.730;2023-11-19T13:14:15;14.00;99.90
8856;DHT22;4464;50.882;4.730;2023-11-19T13:16:40;14.00;99.90
8856;DHT22;4464;50.882;4.730;2023-11-19T13:19:08;14.10;99.90
8856;DHT22;4464;50.882;4.730;2023-11-19T13:21:36;14.20;99.90
8856;DHT22;4464;50.882;4.730;2023-11-19T13:24:08;14.20;99.90
8856;DHT22;4464;50.882;4.730;2023-11-19T13:26:34;14.50;99.90
8856;DHT22;4464;50.882;4.730;2023-11-19T13:29:02;14.50;99.90
8856;DHT22;4464;50.882;4.730;2023-11-19T13:31:28;14.40;99.90
8856;DHT22;4464;50.882;4.730;2023-11-19T13:33:56;14.30;99.90
8856;DHT22;4464;50.882;4.730;2023-11-19T13:36:24;14.30;99.90
8856;DHT22;4464;50.882;4.730;2023-11-19T13:38:51;14.30;99.90
8856;DHT22;4464;50.882;4.730;2023-11-19T13:41:19;14.20;99.90
8856;DHT22;4464;50.882;4.730;2023-11-19T13:43:50;14.20;99.90
8856;DHT22;4464;50.882;4.730;2023-11-19T13:46:16;14.20;99.90
8856;DHT22;4464;50.882;4.730;2023-11-19T13:48:41;14.20;99.90
8856;DHT22;4464;50.882;4.730;2023-11-19T13:51:09;14.20;99.90
8856;DHT22;4464;50.882;4.730;2023-11-19T13:53:38;14.20;99.90
8856;DHT22;4464;50.882;4.730;2023-11-19T13:56:04;14.10;99.90
8856;DHT22;4464;50.882;4.730;2023-11-19T13:58:30;13.90;99.90
8856;DHT22;4464;50.882;4.730;2023-11-19T14:01:02;13.80;99.90
8856;DHT22;4464;50.882;4.730;2023-11-19T14:03:28;13.70;99.90
8856;DHT22;4464;50.882;4.730;2023-11-19T14:05:54;13.70;99.90
8856;DHT22;4464;50.882;4.730;2023-11-19T14:08:20;13.70;99.90
8856;DHT22;4464;50.882;4.730;2023-11-19T14:10:46;14.40;99.90
8856;DHT22;4464;50.882;4.730;2023-11-19T14:13:12;14.60;99.90
8856;DHT22;4464;50.882;4.730;2023-11-19T14:15:40;14.70;99.90
8856;DHT22;4464;50.882;4.730;2023-11-19T14:18:09;14.30;99.90
8856;DHT22;4464;50.882;4.730;2023-11-19T14:20:35;14.00;99.90
8856;DHT22;4464;50.882;4.730;2023-11-19T14:23:03;13.80;99.90
8856;DHT22;4464;50.882;4.730;2023-11-19T14:25:33;13.70;99.90
8856;DHT22;4464;50.882;4.730;2023-11-19T14:27:59;13.60;99.90
8856;DHT22;4464;50.882;4.730;2023-11-19T14:30:27;13.50;99.90
8856;DHT22;4464;50.882;4.730;2023-11-19T14:32:53;13.50;99.90
8856;DHT22;4464;50.882;4.730;2023-11-19T14:35:19;13.50;99.90
8856;DHT22;4464;50.882;4.730;2023-11-19T14:37:45;13.50;99.90
8856;DHT22;4464;50.882;4.730;2023-11-19T14:40:11;13.50;99.90
8856;DHT22;4464;50.882;4.730;2023-11-19T14:42:37;13.50;99.90
8856;DHT22;4464;50.882;4.730;2023-11-19T14:45:05;13.40;99.90
8856;DHT22;4464;50.882;4.730;2023-11-19T14:47:33;13.30;99.90
8856;DHT22;4464;50.882;4.730;2023-11-19T14:49:59;13.20;99.90
8856;DHT22;4464;50.882;4.730;2023-11-19T14:52:25;13.00;99.90
8856;DHT22;4464;50.882;4.730;2023-11-19T14:54:55;12.80;99.90
8856;DHT22;4464;50.882;4.730;2023-11-19T14:57:22;12.70;99.90
8856;DHT22;4464;50.882;4.730;2023-11-19T14:59:47;12.70;99.90
8856;DHT22;4464;50.882;4.730;2023-11-19T15:02:13;12.70;99.90
8856;DHT22;4464;50.882;4.730;2023-11-19T15:04:39;12.70;99.90
8856;DHT22;4464;50.882;4.730;2023-11-19T15:07:10;12.70;99.90
8856;DHT22;4464;50.882;4.730;2023-11-19T15:09:37;12.70;99.90
8856;DHT22;4464;50.882;4.730;2023-11-19T15:12:06;12.70;99.90
8856;DHT22;4464;50.882;4.730;2023-11-19T15:14:34;12.70;99.90
8856;DHT22;4464;50.882;4.730;2023-11-19T15:17:02;12.70;99.90
8856;DHT22;4464;50.882;4.730;2023-11-19T15:19:28;12.80;99.90
8856;DHT22;4464;50.882;4.730;2023-11-19T15:21:56;12.80;99.90
8856;DHT22;4464;50.882;4.730;2023-11-19T15:24:22;12.80;99.90
8856;DHT22;4464;50.882;4.730;2023-11-19T15:26:48;12.80;99.90
8856;DHT22;4464;50.882;4.730;2023-11-19T15:29:14;12.80;99.90
8856;DHT22;4464;50.882;4.730;2023-11-19T15:31:40;12.70;99.90
8856;DHT22;4464;50.882;4.730;2023-11-19T15:34:06;12.70;99.90
8856;DHT22;4464;50.882;4.730;2023-11-19T15:36:32;12.80;99.90
8856;DHT22;4464;50.882;4.730;2023-11-19T15:39:00;12.90;99.90
8856;DHT22;4464;50.882;4.730;2023-11-19T15:41:26;12.90;99.90
8856;DHT22;4464;50.882;4.730;2023-11-19T15:43:55;12.90;99.90
8856;DHT22;4464;50.882;4.730;2023-11-19T15:46:21;13.00;99.90
8856;DHT22;4464;50.882;4.730;2023-11-19T15:48:47;13.00;99.90
8856;DHT22;4464;50.882;4.730;2023-11-19T15:51:13;13.10;99.90
8856;DHT22;4464;50.882;4.730;2023-11-19T15:53:41;13.10;99.90
8856;DHT22;4464;50.882;4.730;2023-11-19T15:56:11;13.10;99.90
8856;DHT22;4464;50.882;4.730;2023-11-19T15:58:37;13.20;99.90
8856;DHT22;4464;50.882;4.730;2023-11-19T16:01:05;13.30;99.90
8856;DHT22;4464;50.882;4.730;2023-11-19T16:03:31;13.40;99.90
8856;DHT22;4464;50.882;4.730;2023-11-19T16:05:58;13.40;99.90
8856;DHT22;4464;50.882;4.730;2023-11-19T16:08:24;13.40;99.90
8856;DHT22;4464;50.882;4.730;2023-11-19T16:10:50;13.40;99.90
8856;DHT22;4464;50.882;4.730;2023-11-19T16:13:16;13.40;99.90
8856;DHT22;4464;50.882;4.730;2023-11-19T16:15:42;13.40;99.90
8856;DHT22;4464;50.882;4.730;2023-11-19T16:18:08;13.40;99.90
8856;DHT22;4464;50.882;4.730;2023-11-19T16:20:35;13.40;99.90
8856;DHT22;4464;50.882;4.730;2023-11-19T16:23:01;13.40;99.90
8856;DHT22;4464;50.882;4.730;2023-11-19T16:25:29;13.30;99.90